createdAt,value
2023-01-06T00:01:34.554Z,3.28
2023-01-06T00:04:04.470Z,3.00
2023-01-06T00:06:32.374Z,3.05
2023-01-06T00:09:04.476Z,3.35
2023-01-06T00:11:32.492Z,3.20
2023-01-06T00:14:02.689Z,2.67
2023-01-06T00:16:30.372Z,2.92
2023-01-06T00:18:59.344Z,2.67
2023-01-06T00:21:27.101Z,3.20
2023-01-06T00:23:55.209Z,3.40
2023-01-06T00:26:22.905Z,2.65
2023-01-06T00:28:54.160Z,2.60
2023-01-06T00:31:21.886Z,2.60
2023-01-06T00:33:49.331Z,2.60
2023-01-06T00:36:16.720Z,2.92
2023-01-06T00:38:44.059Z,3.30
2023-01-06T00:41:31.958Z,2.90
2023-01-06T00:44:00.175Z,3.38
2023-01-06T00:46:29.918Z,3.35
2023-01-06T00:49:07.372Z,2.95
2023-01-06T00:51:37.216Z,3.00
2023-01-06T00:54:05.239Z,3.25
2023-01-06T00:56:32.681Z,3.33
2023-01-06T00:59:01.913Z,2.90
2023-01-06T01:01:32.073Z,3.13
2023-01-06T01:03:59.570Z,2.78
2023-01-06T01:06:27.077Z,2.60
2023-01-06T01:08:56.633Z,2.72
2023-01-06T01:11:46.086Z,2.63
2023-01-06T01:14:14.834Z,2.85
2023-01-06T01:16:42.544Z,3.05
2023-01-06T01:19:12.675Z,2.92
2023-01-06T01:21:40.163Z,2.92
2023-01-06T01:24:07.810Z,2.47
2023-01-06T01:26:35.220Z,2.75
2023-01-06T01:29:05.118Z,2.53
2023-01-06T01:31:32.529Z,2.67
2023-01-06T01:34:01.079Z,2.90
2023-01-06T01:36:28.492Z,3.00
2023-01-06T01:38:57.213Z,2.90
2023-01-06T01:41:26.306Z,3.25
2023-01-06T01:43:56.255Z,2.80
2023-01-06T01:46:29.563Z,2.80
2023-01-06T01:49:03.559Z,2.70
2023-01-06T01:51:35.482Z,2.40
2023-01-06T01:54:07.855Z,2.92
2023-01-06T01:56:37.803Z,2.72
2023-01-06T01:59:12.210Z,2.92
2023-01-06T02:01:39.742Z,2.85
2023-01-06T02:04:11.252Z,2.90
2023-01-06T02:06:41.224Z,2.58
2023-01-06T02:09:19.834Z,2.95
2023-01-06T02:11:51.431Z,3.10
2023-01-06T02:14:23.995Z,2.65
2023-01-06T02:17:21.823Z,2.85
2023-01-06T02:20:00.990Z,2.97
2023-01-06T02:22:48.473Z,3.03
2023-01-06T02:25:46.916Z,3.20
2023-01-06T02:28:41.625Z,3.33
2023-01-06T02:31:30.529Z,2.75
2023-01-06T02:34:01.411Z,2.60
2023-01-06T02:36:41.069Z,2.97
2023-01-06T02:39:29.707Z,3.50
2023-01-06T02:42:27.132Z,2.70
2023-01-06T02:45:09.609Z,2.50
2023-01-06T02:48:12.905Z,3.17
2023-01-06T02:50:55.089Z,2.47
2023-01-06T02:53:34.550Z,2.47
2023-01-06T02:56:03.265Z,2.70
2023-01-06T02:58:34.859Z,3.05
2023-01-06T03:01:12.358Z,2.38
2023-01-06T03:03:43.223Z,3.13
2023-01-06T03:06:21.246Z,2.90
2023-01-06T03:08:54.271Z,2.70
2023-01-06T03:11:22.114Z,2.50
2023-01-06T03:14:02.233Z,2.80
2023-01-06T03:16:32.208Z,2.95
2023-01-06T03:19:03.411Z,2.70
2023-01-06T03:21:36.009Z,3.17
2023-01-06T03:24:07.692Z,2.92
2023-01-06T03:29:09.400Z,2.50
2023-01-06T03:31:54.893Z,2.85
2023-01-06T03:34:27.532Z,3.33
2023-01-06T03:37:11.038Z,2.63
2023-01-06T03:39:50.344Z,2.70
2023-01-06T03:42:51.013Z,3.08
2023-01-06T03:45:41.291Z,3.05
2023-01-06T03:48:23.222Z,2.70
2023-01-06T03:50:53.696Z,3.08
2023-01-06T03:53:39.113Z,3.00
2023-01-06T03:56:18.573Z,2.60
2023-01-06T03:58:49.324Z,2.58
2023-01-06T04:01:18.230Z,3.20
2023-01-06T04:03:52.732Z,3.30
2023-01-06T04:06:22.384Z,2.92
2023-01-06T04:08:49.893Z,2.92
2023-01-06T04:11:35.774Z,2.85
2023-01-06T04:14:03.338Z,3.03
2023-01-06T04:16:30.747Z,3.42
2023-01-06T04:18:58.460Z,3.03
2023-01-06T04:21:26.651Z,3.72
2023-01-06T04:23:54.337Z,3.75
2023-01-06T04:26:21.785Z,8.05
2023-01-06T04:28:49.114Z,16.33
2023-01-06T04:31:16.686Z,14.55
2023-01-06T04:33:44.099Z,15.88
2023-01-06T04:36:16.163Z,15.88
2023-01-06T04:38:43.526Z,13.07
2023-01-06T04:41:10.942Z,13.23
2023-01-06T04:43:38.383Z,10.10
2023-01-06T04:46:08.532Z,9.35
2023-01-06T04:48:36.046Z,7.82
2023-01-06T04:51:06.138Z,6.28
2023-01-06T04:53:35.303Z,5.03
2023-01-06T04:56:07.902Z,4.18
2023-01-06T04:58:36.730Z,4.07
2023-01-06T05:01:09.850Z,3.95
2023-01-06T05:03:38.121Z,3.97
2023-01-06T05:06:11.935Z,3.63
2023-01-06T05:08:40.809Z,3.92
2023-01-06T05:11:17.094Z,3.50
2023-01-06T05:13:44.709Z,3.40
2023-01-06T05:16:18.434Z,3.50
2023-01-06T05:18:46.280Z,3.60
2023-01-06T05:21:13.654Z,3.85
2023-01-06T05:23:41.302Z,3.20
2023-01-06T05:26:15.369Z,3.13
2023-01-06T05:28:42.775Z,3.47
2023-01-06T05:31:12.869Z,3.90
2023-01-06T05:33:42.947Z,3.35
2023-01-06T05:36:13.960Z,3.75
2023-01-06T05:38:41.888Z,3.10
2023-01-06T05:41:11.798Z,3.17
2023-01-06T05:43:39.510Z,3.55
2023-01-06T05:46:08.777Z,3.67
2023-01-06T05:48:36.899Z,3.90
2023-01-06T05:51:06.324Z,3.95
2023-01-06T05:53:36.039Z,3.92
2023-01-06T05:56:06.444Z,4.28
2023-01-06T05:58:35.433Z,4.00
2023-01-06T06:01:07.273Z,4.35
2023-01-06T06:03:35.118Z,3.90
2023-01-06T06:06:04.843Z,3.92
2023-01-06T06:08:33.071Z,3.92
2023-01-06T06:11:09.185Z,4.57
2023-01-06T06:13:37.254Z,4.28
2023-01-06T06:16:13.369Z,4.10
2023-01-06T06:18:45.089Z,3.50
2023-01-06T06:23:44.422Z,4.70
2023-01-06T06:26:12.747Z,4.35
2023-01-06T06:28:40.928Z,3.95
2023-01-06T06:31:13.647Z,4.60
2023-01-06T06:33:43.704Z,4.43
2023-01-06T06:36:12.406Z,5.53
2023-01-06T06:38:40.029Z,4.20
2023-01-06T06:41:07.597Z,4.00
2023-01-06T06:43:35.299Z,4.80
2023-01-06T06:46:05.885Z,4.45
2023-01-06T06:48:33.798Z,4.78
2023-01-06T06:51:04.618Z,4.85
2023-01-06T06:53:35.059Z,3.90
2023-01-06T06:56:04.133Z,4.55
2023-01-06T06:58:31.987Z,4.53
2023-01-06T07:00:59.580Z,4.22
2023-01-06T07:03:30.464Z,5.07
2023-01-06T07:06:00.518Z,4.80
2023-01-06T07:08:27.921Z,4.30
2023-01-06T07:10:58.957Z,4.95
2023-01-06T07:13:26.451Z,4.78
2023-01-06T07:15:54.024Z,5.20
2023-01-06T07:18:24.744Z,5.15
2023-01-06T07:20:55.348Z,5.03
2023-01-06T07:23:23.858Z,5.10
2023-01-06T07:25:54.876Z,4.85
2023-01-06T07:28:23.533Z,5.63
2023-01-06T07:30:51.159Z,4.88
2023-01-06T07:33:19.534Z,5.35
2023-01-06T07:35:46.984Z,6.07
2023-01-06T07:38:14.471Z,5.38
2023-01-06T07:40:44.312Z,5.40
2023-01-06T07:43:12.150Z,5.72
2023-01-06T07:45:39.527Z,6.13
2023-01-06T07:48:09.300Z,6.45
2023-01-06T07:50:36.756Z,6.30
2023-01-06T07:53:04.435Z,7.03
2023-01-06T07:55:31.948Z,6.93
2023-01-06T07:58:00.160Z,7.00
2023-01-06T08:00:27.618Z,7.78
2023-01-06T08:02:57.330Z,7.50
2023-01-06T08:05:24.949Z,7.63
2023-01-06T08:07:52.347Z,8.20
2023-01-06T08:10:19.852Z,8.35
2023-01-06T08:12:47.272Z,8.23
2023-01-06T08:15:14.661Z,8.07
2023-01-06T08:17:42.047Z,7.65
2023-01-06T08:20:10.170Z,9.00
2023-01-06T08:22:40.144Z,9.50
2023-01-06T08:25:08.113Z,9.90
2023-01-06T08:27:35.948Z,9.90
2023-01-06T08:30:03.960Z,8.90
2023-01-06T08:32:31.292Z,9.05
2023-01-06T08:35:00.858Z,10.18
2023-01-06T08:37:30.866Z,11.23
2023-01-06T08:39:58.308Z,10.88
2023-01-06T08:42:25.987Z,9.30
2023-01-06T08:44:53.364Z,8.73
2023-01-06T08:47:20.936Z,9.32
2023-01-06T08:49:48.373Z,8.13
2023-01-06T08:52:15.677Z,8.07
2023-01-06T08:54:43.063Z,8.38
2023-01-06T08:57:11.267Z,8.80
2023-01-06T08:59:40.997Z,8.80
2023-01-06T09:02:10.943Z,9.15
2023-01-06T09:04:38.498Z,9.73
2023-01-06T09:07:08.439Z,9.77
2023-01-06T09:09:35.950Z,9.07
2023-01-06T09:12:03.371Z,9.63
2023-01-06T09:14:30.745Z,9.50
2023-01-06T09:16:58.056Z,10.43
2023-01-06T09:19:25.500Z,9.82
2023-01-06T09:21:52.851Z,10.07
2023-01-06T09:24:20.302Z,8.95
2023-01-06T09:26:47.641Z,8.82
2023-01-06T09:29:15.318Z,8.98
2023-01-06T09:31:42.583Z,8.43
2023-01-06T09:34:10.195Z,8.55
2023-01-06T09:36:39.683Z,8.48
2023-01-06T09:39:09.569Z,7.55
2023-01-06T09:41:51.069Z,8.40
2023-01-06T09:44:24.707Z,8.10
2023-01-06T09:46:53.088Z,8.15
2023-01-06T09:49:37.630Z,9.02
2023-01-06T09:52:24.527Z,8.30
2023-01-06T09:55:05.189Z,8.35
2023-01-06T09:57:45.831Z,8.27
2023-01-06T10:00:40.694Z,8.55
2023-01-06T10:03:23.977Z,8.73
2023-01-06T10:05:54.368Z,8.40
2023-01-06T10:08:40.862Z,9.02
2023-01-06T10:11:13.984Z,8.95
2023-01-06T10:13:58.013Z,9.68
2023-01-06T10:16:34.764Z,9.30
2023-01-06T10:19:28.202Z,9.93
2023-01-06T10:22:37.603Z,9.60
2023-01-06T10:25:21.896Z,10.75
2023-01-06T10:27:53.420Z,10.88
2023-01-06T10:30:50.700Z,10.35
2023-01-06T10:33:32.951Z,9.70
2023-01-06T10:36:00.787Z,9.88
2023-01-06T10:38:37.479Z,9.65
2023-01-06T10:41:19.499Z,9.43
2023-01-06T10:43:46.824Z,9.23
2023-01-06T10:46:16.293Z,8.90
2023-01-06T10:48:46.130Z,8.90
2023-01-06T10:51:38.926Z,9.60
2023-01-06T10:54:13.411Z,9.65
2023-01-06T10:56:46.927Z,10.57
2023-01-06T10:59:14.366Z,10.73
2023-01-06T11:01:53.291Z,9.80
2023-01-06T11:04:21.875Z,9.90
2023-01-06T11:06:56.485Z,9.48
2023-01-06T11:09:39.173Z,8.90
2023-01-06T11:12:18.692Z,9.05
2023-01-06T11:15:06.171Z,8.45
2023-01-06T11:17:36.669Z,8.65
2023-01-06T11:20:32.654Z,9.13
2023-01-06T11:23:22.940Z,9.32
2023-01-06T11:26:18.134Z,8.70
2023-01-06T11:28:48.363Z,8.50
2023-01-06T11:31:16.091Z,7.10
2023-01-06T11:34:01.839Z,8.90
2023-01-06T11:36:31.816Z,7.72
2023-01-06T11:39:02.965Z,9.00
2023-01-06T11:41:37.031Z,7.30
2023-01-06T11:44:18.784Z,7.70
2023-01-06T11:46:55.459Z,7.70
2023-01-06T11:49:30.253Z,7.65
2023-01-06T11:52:07.469Z,7.45
2023-01-06T11:54:41.741Z,6.80
2023-01-06T11:57:50.626Z,6.47
2023-01-06T12:00:39.280Z,6.70
2023-01-06T12:03:21.969Z,6.95
2023-01-06T12:05:56.825Z,7.28
2023-01-06T12:08:24.138Z,7.88
2023-01-06T12:11:00.676Z,7.63
2023-01-06T12:13:28.090Z,9.65
2023-01-06T12:16:02.755Z,13.68
2023-01-06T12:18:38.658Z,12.23
2023-01-06T12:21:07.992Z,12.10
2023-01-06T12:23:40.351Z,11.65
2023-01-06T12:26:23.951Z,12.73
2023-01-06T12:28:55.030Z,11.95
2023-01-06T12:31:45.627Z,14.52
2023-01-06T12:34:21.641Z,14.43
2023-01-06T12:37:30.313Z,12.35
2023-01-06T12:40:00.928Z,11.80
2023-01-06T12:42:45.802Z,12.15
2023-01-06T12:45:18.561Z,12.10
2023-01-06T12:47:54.934Z,12.70
2023-01-06T12:50:45.976Z,11.70
2023-01-06T12:53:31.174Z,11.05
2023-01-06T12:56:39.227Z,12.75
2023-01-06T12:59:21.683Z,12.82
2023-01-06T13:01:59.629Z,12.45
2023-01-06T13:05:02.547Z,13.48
2023-01-06T13:07:59.458Z,14.18
2023-01-06T13:10:44.207Z,13.55
2023-01-06T13:13:46.660Z,14.93
2023-01-06T13:16:31.784Z,14.38
2023-01-06T13:18:59.329Z,14.05
2023-01-06T13:21:28.463Z,15.40
2023-01-06T13:24:18.142Z,14.57
2023-01-06T13:27:07.643Z,15.32
2023-01-06T13:29:38.215Z,15.57
2023-01-06T13:32:43.866Z,15.40
2023-01-06T13:35:22.066Z,14.85
2023-01-06T13:38:18.171Z,16.40
2023-01-06T13:40:50.141Z,16.38
2023-01-06T13:43:24.901Z,17.92
2023-01-06T13:46:02.720Z,16.90
2023-01-06T13:48:33.706Z,16.25
2023-01-06T13:51:09.771Z,19.15
2023-01-06T13:53:43.099Z,18.15
2023-01-06T13:56:13.387Z,17.70
2023-01-06T13:58:42.035Z,16.98
2023-01-06T14:01:20.119Z,17.08
2023-01-06T14:03:49.755Z,15.10
2023-01-06T14:06:23.191Z,16.35
2023-01-06T14:09:02.267Z,14.70
2023-01-06T14:11:39.097Z,12.73
2023-01-06T14:14:29.863Z,12.90
2023-01-06T14:16:58.218Z,13.25
2023-01-06T14:19:30.388Z,13.50
2023-01-06T14:22:14.912Z,12.93
2023-01-06T14:24:54.330Z,12.95
2023-01-06T14:27:51.061Z,12.45
2023-01-06T14:30:31.573Z,12.73
2023-01-06T14:33:07.005Z,12.70
2023-01-06T14:35:44.468Z,13.40
2023-01-06T14:38:46.102Z,14.38
2023-01-06T14:41:22.792Z,13.25
2023-01-06T14:44:01.604Z,13.55
2023-01-06T14:46:53.185Z,12.32
2023-01-06T14:49:48.183Z,12.57
2023-01-06T14:52:34.503Z,11.65
2023-01-06T14:55:08.432Z,11.10
2023-01-06T14:57:38.565Z,10.60
2023-01-06T15:00:07.265Z,11.23
2023-01-06T15:02:35.403Z,12.07
2023-01-06T15:05:03.023Z,12.15
2023-01-06T15:07:30.583Z,12.45
2023-01-06T15:10:21.158Z,12.90
2023-01-06T15:12:56.841Z,12.63
2023-01-06T15:15:32.160Z,12.68
2023-01-06T15:18:02.319Z,15.45
2023-01-06T15:20:41.078Z,17.15
2023-01-06T15:23:12.691Z,17.83
2023-01-06T15:25:40.271Z,19.80
2023-01-06T15:28:29.579Z,20.25
2023-01-06T15:30:57.864Z,18.05
2023-01-06T15:33:30.766Z,17.80
2023-01-06T15:35:58.378Z,16.98
2023-01-06T15:38:34.438Z,16.17
2023-01-06T15:41:04.669Z,15.75
2023-01-06T15:43:42.699Z,15.32
2023-01-06T15:46:12.571Z,14.55
2023-01-06T15:48:48.999Z,15.02
2023-01-06T15:51:19.667Z,14.05
2023-01-06T15:53:52.652Z,16.33
2023-01-06T15:56:25.707Z,16.40
2023-01-06T15:58:57.215Z,14.93
2023-01-06T16:01:25.552Z,15.43
2023-01-06T16:03:57.286Z,15.02
2023-01-06T16:09:22.674Z,13.82
2023-01-06T16:12:17.823Z,14.02
2023-01-06T16:14:49.027Z,13.80
2023-01-06T16:17:32.340Z,13.13
2023-01-06T16:20:04.826Z,13.45
2023-01-06T16:22:34.219Z,12.80
2023-01-06T16:25:28.632Z,13.90
2023-01-06T16:28:02.197Z,13.40
2023-01-06T16:30:34.034Z,12.02
2023-01-06T16:33:01.957Z,10.95
2023-01-06T16:35:34.988Z,10.95
2023-01-06T16:38:02.393Z,10.10
2023-01-06T16:40:30.594Z,9.70
2023-01-06T16:43:08.207Z,14.82
2023-01-06T16:45:41.932Z,30.25
2023-01-06T16:48:14.114Z,18.13
2023-01-06T16:50:44.897Z,11.57
2023-01-06T16:53:12.563Z,9.70
2023-01-06T16:55:43.407Z,8.68
2023-01-06T16:58:20.924Z,8.57
2023-01-06T17:00:54.472Z,9.18
2023-01-06T17:03:31.269Z,9.10
2023-01-06T17:05:58.644Z,8.88
2023-01-06T17:08:40.899Z,8.18
2023-01-06T17:11:17.347Z,7.60
2023-01-06T17:14:09.874Z,8.40
2023-01-06T17:16:40.265Z,8.13
2023-01-06T17:19:19.574Z,7.90
2023-01-06T17:21:54.084Z,8.02
2023-01-06T17:24:26.684Z,7.78
2023-01-06T17:27:25.416Z,7.63
2023-01-06T17:29:53.961Z,7.70
2023-01-06T17:32:37.488Z,7.55
2023-01-06T17:35:24.304Z,8.80
2023-01-06T17:37:54.655Z,8.77
2023-01-06T17:40:35.096Z,8.75
2023-01-06T17:43:07.798Z,9.80
2023-01-06T17:45:35.279Z,10.23
2023-01-06T17:48:02.994Z,9.75
2023-01-06T17:50:32.909Z,10.32
2023-01-06T17:53:42.831Z,9.48
2023-01-06T17:56:11.324Z,9.82
2023-01-06T17:58:41.276Z,10.18
2023-01-06T18:01:14.640Z,9.23
2023-01-06T18:03:45.861Z,11.00
2023-01-06T18:06:37.900Z,10.18
2023-01-06T18:11:41.080Z,10.20
2023-01-06T18:14:33.559Z,10.68
2023-01-06T18:17:25.985Z,11.18
2023-01-06T18:19:57.528Z,10.90
2023-01-06T18:22:25.969Z,12.80
2023-01-06T18:24:58.066Z,11.43
2023-01-06T18:27:35.368Z,10.63
2023-01-06T18:30:25.259Z,9.85
2023-01-06T18:32:52.898Z,8.98
2023-01-06T18:35:27.692Z,9.18
2023-01-06T18:38:02.571Z,8.93
2023-01-06T18:40:31.620Z,8.38
2023-01-06T18:43:00.305Z,7.90
2023-01-06T18:45:35.987Z,8.10
2023-01-06T18:48:16.879Z,7.15
2023-01-06T18:50:46.353Z,5.95
2023-01-06T18:53:14.056Z,5.95
2023-01-06T18:55:51.283Z,5.97
2023-01-06T18:58:35.864Z,6.15
2023-01-06T19:01:15.808Z,6.05
2023-01-06T19:04:04.110Z,6.70
2023-01-06T19:06:38.079Z,6.07
2023-01-06T19:09:22.601Z,6.78
2023-01-06T19:11:58.306Z,6.22
2023-01-06T19:14:27.804Z,6.00
2023-01-06T19:16:58.599Z,4.97
2023-01-06T19:19:38.639Z,5.57
2023-01-06T19:22:15.475Z,5.63
2023-01-06T19:24:47.887Z,6.25
2023-01-06T19:27:35.168Z,6.43
2023-01-06T19:30:31.965Z,5.55
2023-01-06T19:33:17.884Z,5.40
2023-01-06T19:35:47.871Z,6.10
2023-01-06T19:38:33.759Z,5.20
2023-01-06T19:41:02.651Z,6.32
2023-01-06T19:43:33.014Z,5.55
2023-01-06T19:46:38.581Z,5.40
2023-01-06T19:49:15.716Z,5.28
2023-01-06T19:51:43.717Z,5.35
2023-01-06T19:54:11.202Z,5.32
2023-01-06T19:56:43.213Z,5.38
2023-01-06T19:59:17.128Z,4.85
2023-01-06T20:01:47.707Z,5.95
2023-01-06T20:04:26.669Z,5.45
2023-01-06T20:06:54.855Z,6.03
2023-01-06T20:09:25.204Z,6.75
2023-01-06T20:11:53.025Z,6.63
2023-01-06T20:14:20.944Z,5.93
2023-01-06T20:16:48.835Z,5.03
2023-01-06T20:19:16.350Z,4.63
2023-01-06T20:21:43.874Z,10.15
2023-01-06T20:24:14.187Z,6.35
2023-01-06T20:26:42.549Z,5.00
2023-01-06T20:29:10.884Z,4.28
2023-01-06T20:31:41.068Z,4.32
2023-01-06T20:34:08.657Z,4.53
2023-01-06T20:36:36.146Z,4.70
2023-01-06T20:39:03.646Z,4.80
2023-01-06T20:41:33.092Z,6.68
2023-01-06T20:44:00.533Z,10.70
2023-01-06T20:46:27.947Z,5.72
2023-01-06T20:48:55.599Z,5.15
2023-01-06T20:51:23.107Z,5.15
2023-01-06T20:53:50.580Z,5.22
2023-01-06T20:56:17.982Z,4.90
2023-01-06T20:58:47.992Z,5.07
2023-01-06T21:01:15.781Z,4.20
2023-01-06T21:03:43.239Z,5.03
2023-01-06T21:06:10.658Z,5.30
2023-01-06T21:08:38.333Z,4.85
2023-01-06T21:11:08.463Z,4.38
2023-01-06T21:13:35.910Z,4.75
2023-01-06T21:16:03.278Z,4.50
2023-01-06T21:18:34.749Z,4.78
2023-01-06T21:21:02.315Z,4.50
2023-01-06T21:23:29.826Z,4.50
2023-01-06T21:25:57.234Z,4.20
2023-01-06T21:28:24.630Z,4.13
2023-01-06T21:30:52.118Z,4.40
2023-01-06T21:33:21.564Z,4.15
2023-01-06T21:35:49.291Z,4.55
2023-01-06T21:38:17.215Z,4.47
2023-01-06T21:40:44.565Z,4.28
2023-01-06T21:43:12.068Z,4.30
2023-01-06T21:45:46.831Z,3.88
2023-01-06T21:48:16.347Z,4.20
2023-01-06T21:50:46.195Z,4.28
2023-01-06T21:53:14.356Z,4.35
2023-01-06T21:55:44.032Z,4.40
2023-01-06T21:58:11.409Z,4.68
2023-01-06T22:00:38.972Z,4.03
2023-01-06T22:03:08.642Z,4.10
2023-01-06T22:05:36.123Z,4.40
2023-01-06T22:08:04.769Z,4.38
2023-01-06T22:10:32.387Z,4.82
2023-01-06T22:13:10.715Z,4.72
2023-01-06T22:15:39.025Z,5.32
2023-01-06T22:18:07.723Z,5.15
2023-01-06T22:20:40.245Z,5.35
2023-01-06T22:23:11.154Z,5.70
2023-01-06T22:25:38.879Z,5.18
2023-01-06T22:28:08.459Z,5.07
2023-01-06T22:30:36.051Z,4.90
2023-01-06T22:33:03.580Z,5.15
2023-01-06T22:35:31.162Z,5.03
2023-01-06T22:37:59.393Z,4.78
2023-01-06T22:40:28.630Z,5.15
2023-01-06T22:42:56.997Z,5.38
2023-01-06T22:45:24.688Z,4.68
2023-01-06T22:47:52.015Z,5.05
2023-01-06T22:50:19.493Z,4.70
2023-01-06T22:52:46.931Z,4.63
2023-01-06T22:55:14.349Z,5.18
2023-01-06T22:57:42.209Z,4.90
2023-01-06T23:00:16.413Z,5.60
2023-01-06T23:02:47.541Z,5.78
2023-01-06T23:05:15.084Z,5.65
2023-01-06T23:07:44.011Z,5.90
2023-01-06T23:10:13.954Z,5.82
2023-01-06T23:12:42.445Z,5.70
2023-01-06T23:15:12.460Z,5.72
2023-01-06T23:17:44.569Z,5.53
2023-01-06T23:20:11.998Z,5.30
2023-01-06T23:22:39.573Z,5.60
2023-01-06T23:25:07.441Z,5.40
2023-01-06T23:27:36.338Z,5.60
2023-01-06T23:30:06.745Z,5.15
2023-01-06T23:32:34.195Z,5.53
2023-01-06T23:35:01.574Z,5.13
2023-01-06T23:37:28.904Z,4.95
2023-01-06T23:39:56.409Z,4.97
2023-01-06T23:42:27.315Z,4.97
2023-01-06T23:44:54.785Z,4.97
2023-01-06T23:47:22.145Z,5.30
2023-01-06T23:49:49.502Z,5.18
2023-01-06T23:52:16.934Z,4.75
2023-01-06T23:54:44.381Z,4.72
2023-01-06T23:57:11.973Z,4.68
2023-01-06T23:59:39.391Z,5.00
